createdAt,value
2016-11-03T00:00:00.082Z,8.3
2016-11-03T00:01:00.097Z,8.23
2016-11-03T00:02:00.104Z,8.31
2016-11-03T00:03:00.121Z,8.3
2016-11-03T00:04:00.146Z,8.26
2016-11-03T00:05:00.149Z,8.27
2016-11-03T00:06:00.173Z,8.24
2016-11-03T00:07:00.189Z,8.26
2016-11-03T00:08:00.192Z,8.26
2016-11-03T00:09:00.208Z,8.27
2016-11-03T00:10:00.240Z,8.2
2016-11-03T00:11:00.243Z,8.23
2016-11-03T00:12:00.260Z,8.23
2016-11-03T00:13:00.284Z,8.13
2016-11-03T00:14:00.286Z,8.24
2016-11-03T00:15:00.299Z,8.16
2016-11-03T00:16:00.630Z,8.18
2016-11-03T00:17:00.356Z,8.13
2016-11-03T00:18:00.345Z,8.15
2016-11-03T00:19:00.368Z,8.1
2016-11-03T00:20:00.379Z,8.13
2016-11-03T00:21:00.389Z,8.13
2016-11-03T00:22:00.418Z,8.12
2016-11-03T00:23:00.419Z,8.13
2016-11-03T00:24:00.436Z,8.1
2016-11-03T00:25:00.454Z,8.13
2016-11-03T00:26:00.512Z,8.06
2016-11-03T00:27:00.475Z,8.18
2016-11-03T00:28:00.491Z,8.12
2016-11-03T00:29:00.511Z,8.09
2016-11-03T00:30:00.638Z,8.1
2016-11-03T00:31:00.539Z,8.13
2016-11-03T00:32:00.548Z,8.09
2016-11-03T00:33:00.689Z,8.05
2016-11-03T00:34:00.583Z,8.09
2016-11-03T00:35:00.602Z,8.08
2016-11-03T00:36:00.622Z,8.09
2016-11-03T00:37:00.619Z,8.12
2016-11-03T00:38:00.639Z,8.08
2016-11-03T00:39:00.651Z,8.03
2016-11-03T00:40:00.668Z,8.08
2016-11-03T00:41:00.695Z,8
2016-11-03T00:42:00.694Z,8.01
2016-11-03T00:43:00.715Z,8.01
2016-11-03T00:44:00.737Z,8
2016-11-03T00:45:00.742Z,8.03
2016-11-03T00:46:00.760Z,8
2016-11-03T00:47:00.778Z,7.88
2016-11-03T00:48:00.906Z,8.01
2016-11-03T00:49:00.786Z,7.95
2016-11-03T00:50:00.853Z,7.93
2016-11-03T00:51:00.826Z,8
2016-11-03T00:52:00.960Z,8.01
2016-11-03T00:53:00.963Z,7.88
2016-11-03T00:54:00.972Z,7.94
2016-11-03T00:55:00.996Z,7.94
2016-11-03T00:56:01.009Z,7.93
2016-11-03T00:57:01.011Z,7.88
2016-11-03T00:58:01.397Z,7.94
2016-11-03T00:59:00.936Z,7.94
2016-11-03T01:00:01.037Z,7.87
2016-11-03T01:01:01.036Z,7.87
2016-11-03T01:02:01.062Z,7.91
2016-11-03T01:03:01.070Z,7.93
2016-11-03T01:04:01.101Z,7.95
2016-11-03T01:05:01.104Z,7.91
2016-11-03T01:06:01.114Z,7.88
2016-11-03T01:07:01.119Z,7.8
2016-11-03T01:08:01.129Z,7.8
2016-11-03T01:09:01.135Z,7.82
2016-11-03T01:10:01.136Z,7.79
2016-11-03T01:11:01.143Z,7.8
2016-11-03T01:12:01.154Z,7.76
2016-11-03T01:13:01.170Z,7.79
2016-11-03T01:14:01.194Z,7.82
2016-11-03T01:15:01.173Z,7.83
2016-11-03T01:16:01.182Z,7.8
2016-11-03T01:17:01.195Z,7.79
2016-11-03T01:18:01.229Z,7.79
2016-11-03T01:19:01.234Z,7.75
2016-11-03T01:20:01.242Z,7.82
2016-11-03T01:21:01.258Z,7.79
2016-11-03T01:22:01.289Z,7.72
2016-11-03T01:23:01.292Z,7.7
2016-11-03T01:24:01.291Z,7.73
2016-11-03T01:25:01.315Z,7.7
2016-11-03T01:26:01.338Z,7.67
2016-11-03T01:27:01.345Z,7.72
2016-11-03T01:28:01.348Z,7.7
2016-11-03T01:29:01.375Z,7.7
2016-11-03T01:30:01.391Z,7.7
2016-11-03T01:31:01.404Z,7.69
2016-11-03T01:32:01.422Z,7.63
2016-11-03T01:33:01.436Z,7.72
2016-11-03T01:34:01.440Z,7.6
2016-11-03T01:35:01.464Z,7.69
2016-11-03T01:36:01.475Z,7.66
2016-11-03T01:37:01.490Z,7.7
2016-11-03T01:38:01.500Z,7.63
2016-11-03T01:39:01.521Z,7.66
2016-11-03T01:40:01.531Z,7.7
2016-11-03T01:41:01.548Z,7.67
2016-11-03T01:42:01.562Z,7.69
2016-11-03T01:43:01.574Z,7.67
2016-11-03T01:44:01.578Z,7.6
2016-11-03T01:45:01.595Z,7.6
2016-11-03T01:46:01.609Z,7.58
2016-11-03T01:47:01.625Z,7.63
2016-11-03T01:48:01.662Z,7.6
2016-11-03T01:49:01.655Z,7.6
2016-11-03T01:50:01.668Z,7.66
2016-11-03T01:51:01.692Z,7.51
2016-11-03T01:52:01.697Z,7.61
2016-11-03T01:53:01.712Z,7.61
2016-11-03T01:54:01.727Z,7.54
2016-11-03T01:55:01.741Z,7.51
2016-11-03T01:56:01.768Z,7.54
2016-11-03T01:57:01.776Z,7.51
2016-11-03T01:58:01.793Z,7.5
2016-11-03T01:59:01.802Z,7.54
2016-11-03T02:00:01.822Z,7.43
2016-11-03T02:01:01.824Z,7.5
2016-11-03T02:02:01.863Z,7.48
2016-11-03T02:03:01.862Z,7.48
2016-11-03T02:04:01.874Z,7.47
2016-11-03T02:05:01.936Z,7.43
2016-11-03T02:06:01.934Z,7.48
2016-11-03T02:07:01.916Z,7.51
2016-11-03T02:08:01.937Z,7.42
2016-11-03T02:09:01.936Z,7.43
2016-11-03T02:10:01.957Z,7.43
2016-11-03T02:11:01.969Z,7.5
2016-11-03T02:12:01.977Z,7.43
2016-11-03T02:13:02.036Z,7.47
2016-11-03T02:14:02.010Z,7.47
2016-11-03T02:15:02.024Z,7.47
2016-11-03T02:16:02.034Z,7.4
2016-11-03T02:17:02.064Z,7.47
2016-11-03T02:18:02.067Z,7.43
2016-11-03T02:19:02.120Z,7.45
2016-11-03T02:20:02.104Z,7.47
2016-11-03T02:21:02.106Z,7.42
2016-11-03T02:22:02.123Z,7.42
2016-11-03T02:23:02.142Z,7.39
2016-11-03T02:24:02.156Z,7.35
2016-11-03T02:25:02.165Z,7.38
2016-11-03T02:26:02.176Z,7.33
2016-11-03T02:27:02.194Z,7.35
2016-11-03T02:28:02.201Z,7.36
2016-11-03T02:29:02.218Z,7.28
2016-11-03T02:30:02.233Z,7.29
2016-11-03T02:31:02.260Z,7.31
2016-11-03T02:32:02.253Z,7.29
2016-11-03T02:33:02.280Z,7.33
2016-11-03T02:34:02.288Z,7.33
2016-11-03T02:35:02.316Z,7.28
2016-11-03T02:36:02.319Z,7.31
2016-11-03T02:37:02.326Z,7.33
2016-11-03T02:38:02.366Z,7.31
2016-11-03T02:39:02.678Z,7.2
2016-11-03T02:40:02.382Z,7.36
2016-11-03T02:41:02.387Z,7.29
2016-11-03T02:42:02.406Z,7.28
2016-11-03T02:43:02.418Z,7.21
2016-11-03T02:44:02.438Z,7.23
2016-11-03T02:45:02.442Z,7.29
2016-11-03T02:46:02.465Z,7.32
2016-11-03T02:47:02.475Z,7.2
2016-11-03T02:48:02.495Z,7.29
2016-11-03T02:49:02.521Z,7.2
2016-11-03T02:50:02.515Z,7.21
2016-11-03T02:51:02.523Z,7.28
2016-11-03T02:52:02.535Z,7.17
2016-11-03T02:53:02.555Z,7.15
2016-11-03T02:54:02.579Z,7.13
2016-11-03T02:55:02.584Z,7.18
2016-11-03T02:56:02.727Z,7.2
2016-11-03T02:57:02.721Z,7.2
2016-11-03T02:58:02.641Z,7.17
2016-11-03T02:59:02.873Z,7.2
2016-11-03T03:00:02.768Z,7.17
2016-11-03T03:01:02.776Z,7.18
2016-11-03T03:02:02.789Z,7.15
2016-11-03T03:03:02.927Z,7.14
2016-11-03T03:04:02.950Z,7.17
2016-11-03T03:05:02.945Z,7.2
2016-11-03T03:06:02.966Z,7.15
2016-11-03T03:07:02.962Z,7.15
2016-11-03T03:08:02.870Z,7.23
2016-11-03T03:09:02.875Z,7.2
2016-11-03T03:10:02.911Z,7.2
2016-11-03T03:11:02.894Z,7.15
2016-11-03T03:12:03.043Z,7.15
2016-11-03T03:13:03.352Z,7.18
2016-11-03T03:14:03.057Z,7.1
2016-11-03T03:15:03.055Z,7.13
2016-11-03T03:16:03.062Z,7.13
2016-11-03T03:17:03.073Z,7.17
2016-11-03T03:18:03.095Z,7.11
2016-11-03T03:19:03.090Z,7.15
2016-11-03T03:20:03.035Z,7.21
2016-11-03T03:21:03.353Z,7.2
2016-11-03T03:22:03.053Z,7.13
2016-11-03T03:23:03.057Z,7.13
2016-11-03T03:24:03.081Z,7.13
2016-11-03T03:25:03.067Z,7.06
2016-11-03T03:26:03.099Z,7.06
2016-11-03T03:27:03.104Z,7.07
2016-11-03T03:28:03.112Z,7.05
2016-11-03T03:29:03.117Z,7.13
2016-11-03T03:30:03.132Z,7.11
2016-11-03T03:31:03.165Z,7.13
2016-11-03T03:32:03.146Z,7.17
2016-11-03T03:33:03.105Z,7.07
2016-11-03T03:34:03.133Z,7.02
2016-11-03T03:35:03.136Z,7.06
2016-11-03T03:36:03.153Z,7.02
2016-11-03T03:37:03.482Z,7.02
2016-11-03T03:38:03.190Z,7.02
2016-11-03T03:39:03.191Z,7.11
2016-11-03T03:40:03.228Z,7.06
2016-11-03T03:41:03.216Z,7.1
2016-11-03T03:42:03.235Z,7.03
2016-11-03T03:43:03.251Z,7.05
2016-11-03T03:44:03.275Z,7.06
2016-11-03T03:45:03.272Z,7.11
2016-11-03T03:46:03.403Z,7.03
2016-11-03T03:47:03.293Z,7.05
2016-11-03T03:48:03.330Z,7.03
2016-11-03T03:49:03.338Z,7.07
2016-11-03T03:50:03.348Z,6.99
2016-11-03T03:51:03.363Z,7.05
2016-11-03T03:52:03.366Z,7.03
2016-11-03T03:53:03.391Z,7
2016-11-03T03:54:03.398Z,6.95
2016-11-03T03:55:03.414Z,7
2016-11-03T03:56:03.450Z,6.92
2016-11-03T03:57:03.447Z,7.06
2016-11-03T03:58:03.452Z,6.89
2016-11-03T03:59:03.473Z,6.88
2016-11-03T04:00:03.483Z,6.92
2016-11-03T04:01:03.495Z,6.93
2016-11-03T04:02:03.502Z,6.88
2016-11-03T04:03:03.832Z,6.88
2016-11-03T04:04:03.556Z,6.95
2016-11-03T04:05:03.538Z,6.92
2016-11-03T04:06:03.564Z,6.88
2016-11-03T04:07:03.577Z,6.85
2016-11-03T04:08:03.591Z,6.88
2016-11-03T04:09:03.602Z,6.93
2016-11-03T04:10:03.622Z,6.89
2016-11-03T04:11:03.633Z,6.95
2016-11-03T04:12:03.642Z,6.92
2016-11-03T04:13:03.656Z,6.96
2016-11-03T04:14:03.674Z,6.95
2016-11-03T04:15:03.681Z,6.93
2016-11-03T04:16:03.699Z,6.92
2016-11-03T04:17:03.714Z,6.88
2016-11-03T04:18:03.723Z,6.89
2016-11-03T04:19:03.747Z,6.89
2016-11-03T04:20:03.748Z,6.92
2016-11-03T04:21:03.805Z,6.95
2016-11-03T04:22:03.784Z,6.88
2016-11-03T04:23:03.796Z,6.89
2016-11-03T04:24:03.811Z,6.88
2016-11-03T04:25:03.855Z,6.93
2016-11-03T04:26:03.834Z,6.84
2016-11-03T04:27:03.847Z,6.89
2016-11-03T04:28:03.853Z,6.88
2016-11-03T04:29:03.878Z,6.92
2016-11-03T04:30:03.891Z,6.89
2016-11-03T04:31:03.898Z,6.87
2016-11-03T04:32:03.918Z,6.89
2016-11-03T04:33:03.933Z,6.84
2016-11-03T04:34:03.944Z,6.85
2016-11-03T04:35:03.943Z,6.87
2016-11-03T04:36:03.973Z,6.85
2016-11-03T04:37:03.972Z,6.84
2016-11-03T04:38:03.995Z,6.92
2016-11-03T04:39:04.014Z,6.88
2016-11-03T04:40:04.021Z,6.93
2016-11-03T04:41:04.033Z,6.82
2016-11-03T04:42:04.055Z,6.85
2016-11-03T04:43:04.053Z,6.84
2016-11-03T04:44:04.188Z,6.84
2016-11-03T04:45:04.292Z,6.89
2016-11-03T04:46:04.105Z,6.81
2016-11-03T04:47:04.118Z,6.81
2016-11-03T04:48:04.133Z,6.82
2016-11-03T04:49:04.139Z,6.87
2016-11-03T04:50:04.482Z,6.87
2016-11-03T04:51:04.282Z,6.78
2016-11-03T04:52:04.177Z,6.78
2016-11-03T04:53:04.311Z,6.87
2016-11-03T04:54:04.221Z,6.81
2016-11-03T04:55:04.229Z,6.85
2016-11-03T04:56:04.239Z,6.85
2016-11-03T04:57:04.372Z,6.81
2016-11-03T04:58:04.346Z,6.84
2016-11-03T04:59:04.277Z,6.82
2016-11-03T05:00:04.299Z,6.77
2016-11-03T05:01:04.308Z,6.84
2016-11-03T05:02:04.323Z,6.78
2016-11-03T05:03:04.333Z,6.82
2016-11-03T05:04:04.706Z,6.75
2016-11-03T05:05:04.363Z,6.77
2016-11-03T05:06:04.373Z,6.81
2016-11-03T05:07:04.383Z,6.81
2016-11-03T05:08:04.400Z,6.81
2016-11-03T05:09:04.410Z,6.82
2016-11-03T05:10:04.432Z,6.82
2016-11-03T05:11:04.440Z,6.81
2016-11-03T05:12:04.449Z,6.81
2016-11-03T05:13:04.467Z,6.78
2016-11-03T05:14:04.479Z,6.72
2016-11-03T05:15:04.502Z,6.82
2016-11-03T05:16:04.515Z,6.79
2016-11-03T05:17:04.510Z,6.81
2016-11-03T05:18:04.527Z,6.75
2016-11-03T05:19:04.537Z,6.74
2016-11-03T05:20:04.610Z,6.75
2016-11-03T05:21:04.579Z,6.77
2016-11-03T05:22:04.588Z,6.77
2016-11-03T05:23:04.931Z,6.78
2016-11-03T05:24:04.615Z,6.78
2016-11-03T05:25:04.627Z,6.72
2016-11-03T05:26:04.640Z,6.77
2016-11-03T05:27:04.654Z,6.72
2016-11-03T05:28:04.662Z,6.72
2016-11-03T05:29:04.689Z,6.78
2016-11-03T05:30:04.693Z,6.75
2016-11-03T05:31:04.714Z,6.67
2016-11-03T05:32:04.745Z,6.77
2016-11-03T05:33:05.050Z,6.77
2016-11-03T05:34:04.752Z,6.72
2016-11-03T05:35:04.767Z,6.67
2016-11-03T05:36:04.772Z,6.75
2016-11-03T05:37:04.795Z,6.74
2016-11-03T05:38:04.824Z,6.72
2016-11-03T05:39:04.821Z,6.78
2016-11-03T05:40:04.831Z,6.74
2016-11-03T05:41:04.850Z,6.75
2016-11-03T05:42:04.853Z,6.66
2016-11-03T05:43:04.876Z,6.67
2016-11-03T05:44:04.887Z,6.72
2016-11-03T05:45:04.896Z,6.66
2016-11-03T05:46:04.910Z,6.7
2016-11-03T05:47:04.931Z,6.64
2016-11-03T05:48:04.933Z,6.69
2016-11-03T05:49:04.950Z,6.67
2016-11-03T05:50:04.970Z,6.67
2016-11-03T05:51:04.975Z,6.7
2016-11-03T05:52:04.996Z,6.64
2016-11-03T05:53:04.996Z,6.7
2016-11-03T05:54:05.028Z,6.67
2016-11-03T05:55:05.030Z,6.74
2016-11-03T05:56:05.395Z,6.67
2016-11-03T05:57:05.058Z,6.6
2016-11-03T05:58:05.080Z,6.69
2016-11-03T05:59:05.085Z,6.63
2016-11-03T06:00:05.114Z,6.72
2016-11-03T06:01:05.103Z,6.66
2016-11-03T06:02:05.147Z,6.64
2016-11-03T06:03:05.125Z,6.63
2016-11-03T06:04:05.143Z,6.77
2016-11-03T06:05:05.162Z,6.66
2016-11-03T06:06:05.180Z,6.62
2016-11-03T06:07:05.196Z,6.64
2016-11-03T06:08:05.516Z,6.66
2016-11-03T06:09:05.207Z,6.63
2016-11-03T06:10:05.270Z,6.69
2016-11-03T06:11:05.237Z,6.66
2016-11-03T06:12:05.263Z,6.72
2016-11-03T06:13:05.266Z,6.6
2016-11-03T06:14:05.310Z,6.69
2016-11-03T06:15:05.305Z,6.62
2016-11-03T06:16:05.359Z,6.66
2016-11-03T06:17:05.330Z,6.74
2016-11-03T06:18:05.343Z,6.62
2016-11-03T06:19:05.347Z,6.63
2016-11-03T06:20:05.510Z,6.62
2016-11-03T06:21:05.381Z,6.6
2016-11-03T06:22:05.397Z,6.59
2016-11-03T06:23:05.408Z,6.72
2016-11-03T06:24:05.424Z,6.69
2016-11-03T06:25:05.438Z,6.62
2016-11-03T06:26:05.447Z,6.64
2016-11-03T06:27:05.455Z,6.67
2016-11-03T06:28:05.478Z,6.64
2016-11-03T06:29:05.600Z,6.63
2016-11-03T06:30:05.508Z,6.66
2016-11-03T06:31:05.595Z,6.7
2016-11-03T06:32:05.771Z,6.66
2016-11-03T06:33:05.624Z,6.64
2016-11-03T06:34:05.636Z,6.62
2016-11-03T06:35:05.753Z,6.62
2016-11-03T06:36:05.663Z,6.63
2016-11-03T06:37:05.678Z,6.7
2016-11-03T06:38:05.609Z,6.63
2016-11-03T06:39:05.760Z,6.69
2016-11-03T06:40:05.970Z,6.59
2016-11-03T06:41:05.761Z,6.66
2016-11-03T06:42:05.770Z,6.6
2016-11-03T06:43:05.778Z,6.57
2016-11-03T06:44:05.794Z,6.6
2016-11-03T06:45:05.815Z,6.67
2016-11-03T06:46:05.826Z,6.72
2016-11-03T06:47:05.723Z,6.56
2016-11-03T06:48:06.077Z,6.63
2016-11-03T06:49:05.740Z,6.69
2016-11-03T06:50:05.757Z,6.67
2016-11-03T06:51:05.773Z,6.72
2016-11-03T06:52:05.826Z,6.62
2016-11-03T06:53:05.794Z,6.63
2016-11-03T06:54:05.826Z,6.64
2016-11-03T06:55:05.823Z,6.64
2016-11-03T06:56:05.834Z,6.67
2016-11-03T06:57:05.853Z,6.59
2016-11-03T06:58:05.870Z,6.63
2016-11-03T06:59:05.899Z,6.7
2016-11-03T07:00:05.896Z,6.66
2016-11-03T07:01:05.905Z,6.6
2016-11-03T07:02:05.918Z,6.66
2016-11-03T07:03:05.927Z,6.64
2016-11-03T07:04:05.952Z,6.7
2016-11-03T07:05:05.965Z,6.64
2016-11-03T07:06:05.981Z,6.67
2016-11-03T07:07:06.102Z,6.72
2016-11-03T07:08:05.999Z,6.74
2016-11-03T07:09:06.011Z,6.66
2016-11-03T07:10:06.342Z,6.67
2016-11-03T07:11:06.039Z,6.62
2016-11-03T07:12:06.049Z,6.66
2016-11-03T07:13:06.069Z,6.63
2016-11-03T07:14:06.172Z,6.63
2016-11-03T07:15:06.088Z,6.63
2016-11-03T07:16:06.205Z,6.69
2016-11-03T07:17:06.421Z,6.6
2016-11-03T07:18:06.131Z,6.66
2016-11-03T07:19:06.148Z,6.59
2016-11-03T07:20:06.153Z,6.7
2016-11-03T07:21:06.175Z,6.64
2016-11-03T07:22:06.305Z,6.62
2016-11-03T07:23:06.198Z,6.67
2016-11-03T07:24:06.206Z,6.62
2016-11-03T07:25:06.260Z,6.62
2016-11-03T07:26:06.244Z,6.64
2016-11-03T07:27:06.251Z,6.63
2016-11-03T07:28:06.803Z,6.64
2016-11-03T07:29:06.285Z,6.66
2016-11-03T07:30:06.377Z,6.64
2016-11-03T07:31:06.307Z,6.78
2016-11-03T07:32:06.313Z,6.78
2016-11-03T07:33:06.636Z,6.82
2016-11-03T07:34:06.336Z,6.72
2016-11-03T07:35:06.353Z,6.78
2016-11-03T07:36:06.358Z,6.75
2016-11-03T07:37:06.384Z,6.84
2016-11-03T07:38:06.393Z,6.88
2016-11-03T07:39:06.408Z,6.85
2016-11-03T07:40:06.505Z,6.85
2016-11-03T07:41:06.454Z,6.89
2016-11-03T07:42:06.441Z,6.92
2016-11-03T07:43:06.458Z,6.92
2016-11-03T07:44:06.471Z,7
2016-11-03T07:45:06.489Z,7.03
2016-11-03T07:46:06.660Z,7.03
2016-11-03T07:47:06.953Z,7.14
2016-11-03T07:48:06.611Z,7.18
2016-11-03T07:49:06.851Z,7.15
2016-11-03T07:50:06.565Z,7.17
2016-11-03T07:51:06.574Z,7.13
2016-11-03T07:52:06.576Z,7.2
2016-11-03T07:53:06.590Z,7.18
2016-11-03T07:54:06.604Z,7.17
2016-11-03T07:55:06.621Z,7.29
2016-11-03T07:56:06.810Z,7.32
2016-11-03T07:57:06.832Z,7.29
2016-11-03T07:58:06.651Z,7.28
2016-11-03T07:59:06.672Z,7.25
2016-11-03T08:00:06.683Z,7.31
2016-11-03T08:01:06.692Z,7.39
2016-11-03T08:02:06.712Z,7.33
2016-11-03T08:03:06.722Z,7.39
2016-11-03T08:04:06.726Z,7.45
2016-11-03T08:05:06.755Z,7.4
2016-11-03T08:06:06.754Z,7.42
2016-11-03T08:07:06.764Z,7.47
2016-11-03T08:08:06.780Z,7.43
2016-11-03T08:09:06.810Z,7.51
2016-11-03T08:10:07.119Z,7.56
2016-11-03T08:11:06.826Z,7.51
2016-11-03T08:12:06.837Z,7.66
2016-11-03T08:13:06.852Z,7.67
2016-11-03T08:14:06.855Z,7.63
2016-11-03T08:15:06.889Z,7.69
2016-11-03T08:16:06.889Z,7.6
2016-11-03T08:17:06.906Z,7.76
2016-11-03T08:18:06.923Z,7.73
2016-11-03T08:19:06.931Z,7.72
2016-11-03T08:20:06.942Z,7.75
2016-11-03T08:21:06.962Z,7.75
2016-11-03T08:22:06.971Z,7.76
2016-11-03T08:23:06.993Z,7.79
2016-11-03T08:24:06.991Z,7.77
2016-11-03T08:25:07.030Z,7.79
2016-11-03T08:26:07.018Z,7.9
2016-11-03T08:27:07.039Z,7.77
2016-11-03T08:28:07.060Z,7.8
2016-11-03T08:29:07.061Z,7.82
2016-11-03T08:30:07.073Z,7.85
2016-11-03T08:31:07.410Z,7.9
2016-11-03T08:32:07.099Z,7.93
2016-11-03T08:33:07.122Z,7.88
2016-11-03T08:34:07.135Z,7.93
2016-11-03T08:35:07.136Z,7.98
2016-11-03T08:36:07.163Z,7.97
2016-11-03T08:37:07.168Z,7.98
2016-11-03T08:38:07.186Z,7.93
2016-11-03T08:39:07.200Z,7.93
2016-11-03T08:40:07.212Z,8.01
2016-11-03T08:41:07.228Z,7.95
2016-11-03T08:42:07.245Z,8.01
2016-11-03T08:43:07.258Z,8.01
2016-11-03T08:44:07.261Z,7.93
2016-11-03T08:45:07.437Z,7.97
2016-11-03T08:46:07.302Z,7.94
2016-11-03T08:47:07.314Z,7.98
2016-11-03T08:48:07.357Z,7.91
2016-11-03T08:49:07.333Z,7.95
2016-11-03T08:50:07.358Z,7.85
2016-11-03T08:51:07.357Z,7.88
2016-11-03T08:52:07.384Z,7.95
2016-11-03T08:53:07.395Z,7.85
2016-11-03T08:54:07.400Z,7.88
2016-11-03T08:55:07.415Z,7.8
2016-11-03T08:56:07.432Z,7.93
2016-11-03T08:57:07.453Z,7.93
2016-11-03T08:58:07.458Z,7.93
2016-11-03T08:59:07.478Z,7.94
2016-11-03T09:00:07.496Z,7.97
2016-11-03T09:01:07.497Z,7.93
2016-11-03T09:02:07.516Z,7.95
2016-11-03T09:03:07.535Z,7.94
2016-11-03T09:04:07.547Z,8.01
2016-11-03T09:05:07.554Z,8
2016-11-03T09:06:07.570Z,7.95
2016-11-03T09:07:07.587Z,7.95
2016-11-03T09:08:07.600Z,7.97
2016-11-03T09:09:07.605Z,8.05
2016-11-03T09:10:07.623Z,8.01
2016-11-03T09:11:07.636Z,8.01
2016-11-03T09:12:07.651Z,8.1
2016-11-03T09:13:07.674Z,8.1
2016-11-03T09:14:07.685Z,8.18
2016-11-03T09:15:07.697Z,8.16
2016-11-03T09:16:07.699Z,8.19
2016-11-03T09:17:07.719Z,8.24
2016-11-03T09:18:07.742Z,8.2
2016-11-03T09:19:07.739Z,8.26
2016-11-03T09:20:07.764Z,8.36
2016-11-03T09:21:07.776Z,8.27
2016-11-03T09:22:07.791Z,8.23
2016-11-03T09:23:07.804Z,8.33
2016-11-03T09:24:07.820Z,8.33
2016-11-03T09:25:07.832Z,8.33
2016-11-03T09:26:07.853Z,8.34
2016-11-03T09:27:07.857Z,8.36
2016-11-03T09:28:07.866Z,8.36
2016-11-03T09:29:07.895Z,8.45
2016-11-03T09:30:08.310Z,8.44
2016-11-03T09:31:07.910Z,8.46
2016-11-03T09:32:07.928Z,8.48
2016-11-03T09:33:07.940Z,8.51
2016-11-03T09:34:07.953Z,8.53
2016-11-03T09:35:07.966Z,8.52
2016-11-03T09:36:07.990Z,8.48
2016-11-03T09:37:07.990Z,8.58
2016-11-03T09:38:08.015Z,8.53
2016-11-03T09:39:08.016Z,8.64
2016-11-03T09:40:08.142Z,8.73
2016-11-03T09:41:08.053Z,8.69
2016-11-03T09:42:08.062Z,8.88
2016-11-03T09:43:08.072Z,8.73
2016-11-03T09:44:08.093Z,8.85
2016-11-03T09:45:08.113Z,8.81
2016-11-03T09:46:08.121Z,8.81
2016-11-03T09:47:08.143Z,8.91
2016-11-03T09:48:08.157Z,8.95
2016-11-03T09:49:08.156Z,8.99
2016-11-03T09:50:08.171Z,9
2016-11-03T09:51:08.197Z,9
2016-11-03T09:52:08.217Z,9.11
2016-11-03T09:53:08.221Z,9.08
2016-11-03T09:54:08.239Z,9.14
2016-11-03T09:55:08.252Z,9.14
2016-11-03T09:56:08.254Z,9.13
2016-11-03T09:57:08.279Z,9.16
2016-11-03T09:58:08.297Z,9.25
2016-11-03T09:59:08.313Z,9.25
2016-11-03T10:00:08.317Z,9.14
2016-11-03T10:01:08.334Z,9.13
2016-11-03T10:02:08.346Z,9.16
2016-11-03T10:03:08.359Z,9.19
2016-11-03T10:04:08.370Z,9.29
2016-11-03T10:05:08.391Z,9.26
2016-11-03T10:06:08.408Z,9.32
2016-11-03T10:07:08.414Z,9.4
2016-11-03T10:08:08.432Z,9.41
2016-11-03T10:09:08.450Z,9.48
2016-11-03T10:10:08.480Z,9.44
2016-11-03T10:11:08.487Z,9.44
2016-11-03T10:12:08.497Z,9.51
2016-11-03T10:13:08.509Z,9.51
2016-11-03T10:14:08.524Z,9.58
2016-11-03T10:15:08.534Z,9.58
2016-11-03T10:16:08.547Z,9.69
2016-11-03T10:17:08.574Z,9.68
2016-11-03T10:18:08.590Z,9.73
2016-11-03T10:19:08.597Z,9.74
2016-11-03T10:20:08.607Z,9.64
2016-11-03T10:21:08.630Z,9.66
2016-11-03T10:22:08.648Z,9.68
2016-11-03T10:23:08.654Z,9.73
2016-11-03T10:24:08.667Z,9.77
2016-11-03T10:25:08.685Z,9.82
2016-11-03T10:26:08.709Z,9.8
2016-11-03T10:27:08.715Z,9.84
2016-11-03T10:28:08.733Z,9.91
2016-11-03T10:29:08.740Z,9.89
2016-11-03T10:30:08.770Z,9.87
2016-11-03T10:31:08.773Z,9.89
2016-11-03T10:32:08.777Z,9.97
2016-11-03T10:33:08.805Z,9.94
2016-11-03T10:34:08.811Z,9.97
2016-11-03T10:35:08.837Z,9.97
2016-11-03T10:36:08.839Z,9.97
2016-11-03T10:37:08.856Z,9.97
2016-11-03T10:38:08.885Z,10.13
2016-11-03T10:39:08.892Z,10.12
2016-11-03T10:40:08.914Z,10.1
2016-11-03T10:41:08.915Z,10.13
2016-11-03T10:42:08.927Z,10.07
2016-11-03T10:43:08.953Z,10.1
2016-11-03T10:44:08.964Z,10.1
2016-11-03T10:45:08.982Z,10.16
2016-11-03T10:46:08.984Z,10.16
2016-11-03T10:47:08.998Z,10.19
2016-11-03T10:48:09.024Z,10.15
2016-11-03T10:49:09.076Z,10.1
2016-11-03T10:50:09.057Z,10.16
2016-11-03T10:51:09.060Z,10.26
2016-11-03T10:52:09.081Z,10.26
2016-11-03T10:53:09.095Z,10.31
2016-11-03T10:54:09.113Z,10.26
2016-11-03T10:55:09.120Z,10.33
2016-11-03T10:56:09.131Z,10.37
2016-11-03T10:57:09.150Z,10.26
2016-11-03T10:58:09.174Z,10.37
2016-11-03T10:59:09.188Z,10.37
2016-11-03T11:00:09.200Z,10.37
2016-11-03T11:01:09.209Z,10.41
2016-11-03T11:02:09.228Z,10.44
2016-11-03T11:03:09.245Z,10.44
2016-11-03T11:04:09.257Z,10.53
2016-11-03T11:05:09.638Z,10.48
2016-11-03T11:06:09.298Z,10.54
2016-11-03T11:07:09.317Z,10.56
2016-11-03T11:08:09.322Z,10.57
2016-11-03T11:09:09.423Z,10.57
2016-11-03T11:10:09.367Z,10.6
2016-11-03T11:11:09.371Z,10.57
2016-11-03T11:12:09.400Z,10.53
2016-11-03T11:13:09.443Z,10.61
2016-11-03T11:14:09.420Z,10.53
2016-11-03T11:15:09.427Z,10.61
2016-11-03T11:16:09.448Z,10.67
2016-11-03T11:17:09.471Z,10.68
2016-11-03T11:18:09.477Z,10.69
2016-11-03T11:19:09.516Z,10.68
2016-11-03T11:20:09.510Z,10.68
2016-11-03T11:21:09.514Z,10.69
2016-11-03T11:22:09.534Z,10.63
2016-11-03T11:23:09.552Z,10.64
2016-11-03T11:24:09.563Z,10.63
2016-11-03T11:25:09.586Z,10.64
2016-11-03T11:26:09.595Z,10.78
2016-11-03T11:27:09.620Z,10.74
2016-11-03T11:28:09.622Z,10.72
2016-11-03T11:29:09.648Z,10.76
2016-11-03T11:30:09.659Z,10.76
2016-11-03T11:31:09.741Z,10.81
2016-11-03T11:32:09.688Z,10.74
2016-11-03T11:33:09.705Z,10.82
2016-11-03T11:34:09.716Z,10.81
2016-11-03T11:35:09.743Z,10.72
2016-11-03T11:36:09.753Z,10.75
2016-11-03T11:37:09.768Z,10.78
2016-11-03T11:38:09.773Z,10.79
2016-11-03T11:39:09.792Z,10.81
2016-11-03T11:40:09.814Z,10.79
2016-11-03T11:41:09.824Z,10.87
2016-11-03T11:42:09.839Z,10.79
2016-11-03T11:43:09.887Z,10.86
2016-11-03T11:44:09.882Z,10.9
2016-11-03T11:45:09.886Z,10.9
2016-11-03T11:46:09.911Z,10.96
2016-11-03T11:47:09.918Z,10.92
2016-11-03T11:48:09.935Z,10.81
2016-11-03T11:49:09.954Z,10.87
2016-11-03T11:50:10.018Z,10.82
2016-11-03T11:51:09.985Z,10.81
2016-11-03T11:52:09.992Z,10.78
2016-11-03T11:53:10.008Z,10.81
2016-11-03T11:54:10.023Z,10.84
2016-11-03T11:55:10.074Z,10.74
2016-11-03T11:56:10.051Z,10.89
2016-11-03T11:57:10.087Z,10.81
2016-11-03T11:58:10.083Z,10.79
2016-11-03T11:59:10.106Z,10.79
2016-11-03T12:00:10.111Z,10.78
2016-11-03T12:01:10.151Z,10.86
2016-11-03T12:02:10.149Z,10.79
2016-11-03T12:03:10.171Z,10.86
2016-11-03T12:04:10.187Z,10.89
2016-11-03T12:05:10.254Z,10.92
2016-11-03T12:06:10.206Z,10.82
2016-11-03T12:07:10.239Z,10.94
2016-11-03T12:08:10.238Z,10.93
2016-11-03T12:09:10.267Z,10.9
2016-11-03T12:10:10.600Z,10.9
2016-11-03T12:11:10.292Z,10.92
2016-11-03T12:12:10.318Z,10.89
2016-11-03T12:13:10.634Z,10.9
2016-11-03T12:14:10.331Z,10.9
2016-11-03T12:15:10.351Z,10.94
2016-11-03T12:16:10.372Z,10.94
2016-11-03T12:17:10.379Z,10.99
2016-11-03T12:18:10.413Z,11
2016-11-03T12:19:10.409Z,10.92
2016-11-03T12:20:10.445Z,11
2016-11-03T12:21:10.455Z,11.02
2016-11-03T12:22:10.471Z,11.02
2016-11-03T12:23:10.477Z,11
2016-11-03T12:24:10.498Z,10.97
2016-11-03T12:25:10.568Z,10.96
2016-11-03T12:26:10.549Z,11.02
2016-11-03T12:27:10.555Z,11.11
2016-11-03T12:28:10.568Z,11.11
2016-11-03T12:29:10.572Z,11.12
2016-11-03T12:30:11.001Z,11.11
2016-11-03T12:31:10.612Z,11.12
2016-11-03T12:32:10.635Z,11.17
2016-11-03T12:33:10.643Z,11.19
2016-11-03T12:34:10.658Z,11.14
2016-11-03T12:35:10.675Z,11.14
2016-11-03T12:36:10.687Z,11.18
2016-11-03T12:37:10.752Z,11.22
2016-11-03T12:38:11.044Z,11.23
2016-11-03T12:39:11.058Z,11.19
2016-11-03T12:40:11.079Z,11.26
2016-11-03T12:41:10.763Z,11.29
2016-11-03T12:42:10.785Z,11.33
2016-11-03T12:43:10.804Z,11.26
2016-11-03T12:44:10.816Z,11.26
2016-11-03T12:45:10.824Z,11.22
2016-11-03T12:46:10.859Z,11.23
2016-11-03T12:47:10.861Z,11.33
2016-11-03T12:48:10.936Z,11.33
2016-11-03T12:49:10.888Z,11.23
2016-11-03T12:50:10.919Z,11.32
2016-11-03T12:51:11.236Z,11.27
2016-11-03T12:52:10.954Z,11.23
2016-11-03T12:53:10.962Z,11.26
2016-11-03T12:54:10.975Z,11.32
2016-11-03T12:55:11.001Z,11.3
2016-11-03T12:56:11.032Z,11.3
2016-11-03T12:57:11.030Z,11.41
2016-11-03T12:58:11.049Z,11.37
2016-11-03T12:59:11.064Z,11.37
2016-11-03T13:00:11.081Z,11.4
2016-11-03T13:01:11.104Z,11.4
2016-11-03T13:02:11.107Z,11.4
2016-11-03T13:03:11.126Z,11.41
2016-11-03T13:04:11.145Z,11.44
2016-11-03T13:05:11.162Z,11.47
2016-11-03T13:06:11.212Z,11.48
2016-11-03T13:07:11.206Z,11.47
2016-11-03T13:08:11.218Z,11.57
2016-11-03T13:09:11.230Z,11.47
2016-11-03T13:10:11.239Z,11.57
2016-11-03T13:11:11.259Z,11.57
2016-11-03T13:12:11.280Z,11.62
2016-11-03T13:13:11.279Z,11.7
2016-11-03T13:14:11.301Z,11.57
2016-11-03T13:15:11.321Z,11.68
2016-11-03T13:16:11.341Z,11.72
2016-11-03T13:17:11.361Z,11.66